Terminal Aerodrome Forecast
Issued by NWS Pocatello, ID

Home | Current Version | Previous Version | Text Only | Print | Product List | Glossary On
Versions: 1 2 3 4 5 6 7 8 9 10 11 12 13 14 15
000
FTUS45 KPIH 300500
TAFBYI
TAF
KBYI 300520Z 3006/0106 25006KT P6SM VCSH SCT025 BKN040 OVC060
     FM300700 25009KT 6SM -RA SCT010 BKN020 OVC035
     FM301700 26015G25KT P6SM VCSH SCT025 BKN040 OVC070
     FM302000 27015G25KT P6SM FEW090
     FM010200 25011KT P6SM SKC=

USA.gov is the U.S. government's official web portal to all federal, state and local government web resources and services.